sensor_id;sensor_type;location;lat;lon;timestamp;temperature;humidity
32753;DHT22;19121;52.428;10.816;2022-11-04T00:01:03;19.20;54.60
32753;DHT22;19121;52.428;10.816;2022-11-04T00:03:29;19.20;54.60
32753;DHT22;19121;52.428;10.816;2022-11-04T00:05:54;19.10;54.60
32753;DHT22;19121;52.428;10.816;2022-11-04T00:08:20;19.20;54.60
32753;DHT22;19121;52.428;10.816;2022-11-04T00:10:52;19.10;54.60
32753;DHT22;19121;52.428;10.816;2022-11-04T00:13:36;19.10;55.10
32753;DHT22;19121;52.428;10.816;2022-11-04T00:16:01;19.20;54.70
32753;DHT22;19121;52.428;10.816;2022-11-04T00:18:45;19.10;54.60
32753;DHT22;19121;52.428;10.816;2022-11-04T00:21:11;19.10;54.60
32753;DHT22;19121;52.428;10.816;2022-11-04T00:23:54;19.10;54.60
32753;DHT22;19121;52.428;10.816;2022-11-04T00:26:39;19.10;54.60
32753;DHT22;19121;52.428;10.816;2022-11-04T00:29:23;19.10;54.60
32753;DHT22;19121;52.428;10.816;2022-11-04T00:31:48;19.10;54.60
32753;DHT22;19121;52.428;10.816;2022-11-04T00:34:32;19.10;54.60
32753;DHT22;19121;52.428;10.816;2022-11-04T00:36:58;19.10;54.60
32753;DHT22;19121;52.428;10.816;2022-11-04T00:39:23;19.10;54.70
32753;DHT22;19121;52.428;10.816;2022-11-04T00:41:49;19.10;54.60
32753;DHT22;19121;52.428;10.816;2022-11-04T00:44:14;19.10;54.70
32753;DHT22;19121;52.428;10.816;2022-11-04T00:46:40;19.10;54.70
32753;DHT22;19121;52.428;10.816;2022-11-04T00:49:05;19.10;54.70
32753;DHT22;19121;52.428;10.816;2022-11-04T00:51:31;19.10;54.60
32753;DHT22;19121;52.428;10.816;2022-11-04T00:53:56;19.10;55.00
32753;DHT22;19121;52.428;10.816;2022-11-04T00:56:24;19.10;54.70
32753;DHT22;19121;52.428;10.816;2022-11-04T00:58:50;19.10;55.30
32753;DHT22;19121;52.428;10.816;2022-11-04T01:01:15;19.10;54.70
32753;DHT22;19121;52.428;10.816;2022-11-04T01:03:42;19.10;54.70
32753;DHT22;19121;52.428;10.816;2022-11-04T01:06:07;19.00;54.70
32753;DHT22;19121;52.428;10.816;2022-11-04T01:08:32;19.10;54.70
32753;DHT22;19121;52.428;10.816;2022-11-04T01:11:08;19.00;54.60
32753;DHT22;19121;52.428;10.816;2022-11-04T01:13:34;19.10;54.70
32753;DHT22;19121;52.428;10.816;2022-11-04T01:16:00;19.10;54.70
32753;DHT22;19121;52.428;10.816;2022-11-04T01:18:26;19.10;54.70
32753;DHT22;19121;52.428;10.816;2022-11-04T01:20:51;19.00;54.70
32753;DHT22;19121;52.428;10.816;2022-11-04T01:23:17;19.00;54.70
32753;DHT22;19121;52.428;10.816;2022-11-04T01:25:42;19.10;54.70
32753;DHT22;19121;52.428;10.816;2022-11-04T01:28:07;19.00;54.70
32753;DHT22;19121;52.428;10.816;2022-11-04T01:30:33;19.00;54.70
32753;DHT22;19121;52.428;10.816;2022-11-04T01:32:58;19.00;54.70
32753;DHT22;19121;52.428;10.816;2022-11-04T01:35:24;19.00;54.70
32753;DHT22;19121;52.428;10.816;2022-11-04T01:37:49;19.00;54.70
32753;DHT22;19121;52.428;10.816;2022-11-04T01:40:14;19.00;54.70
32753;DHT22;19121;52.428;10.816;2022-11-04T01:42:40;19.00;54.70
32753;DHT22;19121;52.428;10.816;2022-11-04T01:45:08;19.00;54.70
32753;DHT22;19121;52.428;10.816;2022-11-04T01:47:41;19.00;54.70
32753;DHT22;19121;52.428;10.816;2022-11-04T01:50:09;19.00;54.70
32753;DHT22;19121;52.428;10.816;2022-11-04T01:52:48;19.00;54.70
32753;DHT22;19121;52.428;10.816;2022-11-04T01:55:16;19.00;54.70
32753;DHT22;19121;52.428;10.816;2022-11-04T01:57:42;19.00;54.70
32753;DHT22;19121;52.428;10.816;2022-11-04T02:00:11;19.00;54.70
32753;DHT22;19121;52.428;10.816;2022-11-04T02:02:38;19.00;54.70
32753;DHT22;19121;52.428;10.816;2022-11-04T02:05:05;18.90;54.70
32753;DHT22;19121;52.428;10.816;2022-11-04T02:07:30;19.00;54.70
32753;DHT22;19121;52.428;10.816;2022-11-04T02:09:56;19.00;54.70
32753;DHT22;19121;52.428;10.816;2022-11-04T02:12:21;19.00;54.70
32753;DHT22;19121;52.428;10.816;2022-11-04T02:15:06;18.90;54.70
32753;DHT22;19121;52.428;10.816;2022-11-04T02:17:34;19.00;54.70
32753;DHT22;19121;52.428;10.816;2022-11-04T02:25:29;19.00;54.70
32753;DHT22;19121;52.428;10.816;2022-11-04T02:30:24;19.00;54.80
32753;DHT22;19121;52.428;10.816;2022-11-04T02:32:59;18.90;54.80
32753;DHT22;19121;52.428;10.816;2022-11-04T02:40:33;18.90;54.80
32753;DHT22;19121;52.428;10.816;2022-11-04T02:43:01;18.90;54.80
32753;DHT22;19121;52.428;10.816;2022-11-04T02:45:32;18.90;54.80
32753;DHT22;19121;52.428;10.816;2022-11-04T02:48:02;18.90;54.80
32753;DHT22;19121;52.428;10.816;2022-11-04T02:50:33;18.90;54.80
32753;DHT22;19121;52.428;10.816;2022-11-04T02:53:10;18.90;54.80
32753;DHT22;19121;52.428;10.816;2022-11-04T02:55:41;18.90;54.90
32753;DHT22;19121;52.428;10.816;2022-11-04T02:58:09;18.90;54.80
32753;DHT22;19121;52.428;10.816;2022-11-04T03:00:38;18.90;54.80
32753;DHT22;19121;52.428;10.816;2022-11-04T03:03:06;18.90;54.90
32753;DHT22;19121;52.428;10.816;2022-11-04T03:05:34;18.90;54.80
32753;DHT22;19121;52.428;10.816;2022-11-04T03:08:03;18.90;54.90
32753;DHT22;19121;52.428;10.816;2022-11-04T03:10:34;18.80;54.80
32753;DHT22;19121;52.428;10.816;2022-11-04T03:13:06;18.90;54.90
32753;DHT22;19121;52.428;10.816;2022-11-04T03:15:33;18.90;54.90
32753;DHT22;19121;52.428;10.816;2022-11-04T03:18:18;18.90;54.90
32753;DHT22;19121;52.428;10.816;2022-11-04T03:20:45;18.90;54.90
32753;DHT22;19121;52.428;10.816;2022-11-04T03:23:12;18.90;54.90
32753;DHT22;19121;52.428;10.816;2022-11-04T03:25:39;18.90;54.90
32753;DHT22;19121;52.428;10.816;2022-11-04T03:30:50;18.90;54.80
32753;DHT22;19121;52.428;10.816;2022-11-04T03:33:25;18.90;54.90
32753;DHT22;19121;52.428;10.816;2022-11-04T03:35:51;18.90;54.90
32753;DHT22;19121;52.428;10.816;2022-11-04T03:38:16;18.90;55.00
32753;DHT22;19121;52.428;10.816;2022-11-04T03:40:42;18.90;54.90
32753;DHT22;19121;52.428;10.816;2022-11-04T03:43:29;18.90;54.90
32753;DHT22;19121;52.428;10.816;2022-11-04T03:45:53;18.90;55.00
32753;DHT22;19121;52.428;10.816;2022-11-04T03:48:19;18.90;55.00
32753;DHT22;19121;52.428;10.816;2022-11-04T03:50:45;18.90;55.00
32753;DHT22;19121;52.428;10.816;2022-11-04T03:53:12;18.90;55.00
32753;DHT22;19121;52.428;10.816;2022-11-04T03:55:55;18.90;55.00
32753;DHT22;19121;52.428;10.816;2022-11-04T04:00:59;18.90;55.00
32753;DHT22;19121;52.428;10.816;2022-11-04T04:03:27;18.90;55.00
32753;DHT22;19121;52.428;10.816;2022-11-04T04:06:07;18.90;55.10
32753;DHT22;19121;52.428;10.816;2022-11-04T04:08:38;18.90;55.10
32753;DHT22;19121;52.428;10.816;2022-11-04T04:11:07;18.90;55.10
32753;DHT22;19121;52.428;10.816;2022-11-04T04:13:44;18.90;55.10
32753;DHT22;19121;52.428;10.816;2022-11-04T04:16:21;18.90;55.10
32753;DHT22;19121;52.428;10.816;2022-11-04T04:18:56;18.90;55.10
32753;DHT22;19121;52.428;10.816;2022-11-04T04:21:25;18.90;55.10
32753;DHT22;19121;52.428;10.816;2022-11-04T04:23:52;18.90;55.10
32753;DHT22;19121;52.428;10.816;2022-11-04T04:26:37;18.90;55.10
32753;DHT22;19121;52.428;10.816;2022-11-04T04:29:22;18.90;55.10
32753;DHT22;19121;52.428;10.816;2022-11-04T04:31:49;18.90;55.10
32753;DHT22;19121;52.428;10.816;2022-11-04T04:34:31;18.90;55.10
32753;DHT22;19121;52.428;10.816;2022-11-04T04:37:01;18.90;55.20
32753;DHT22;19121;52.428;10.816;2022-11-04T04:39:30;18.90;55.20
32753;DHT22;19121;52.428;10.816;2022-11-04T04:42:15;18.90;55.20
32753;DHT22;19121;52.428;10.816;2022-11-04T04:45:00;18.90;55.20
32753;DHT22;19121;52.428;10.816;2022-11-04T04:47:32;18.90;55.20
32753;DHT22;19121;52.428;10.816;2022-11-04T04:49:59;18.90;55.20
32753;DHT22;19121;52.428;10.816;2022-11-04T04:52:26;18.90;55.30
32753;DHT22;19121;52.428;10.816;2022-11-04T04:54:52;18.90;55.20
32753;DHT22;19121;52.428;10.816;2022-11-04T04:57:17;18.90;55.30
32753;DHT22;19121;52.428;10.816;2022-11-04T04:59:42;18.90;55.20
32753;DHT22;19121;52.428;10.816;2022-11-04T05:02:08;19.00;55.20
32753;DHT22;19121;52.428;10.816;2022-11-04T05:04:33;18.90;55.20
32753;DHT22;19121;52.428;10.816;2022-11-04T05:06:59;19.00;55.30
32753;DHT22;19121;52.428;10.816;2022-11-04T05:09:24;18.90;55.30
32753;DHT22;19121;52.428;10.816;2022-11-04T05:11:49;18.90;55.20
32753;DHT22;19121;52.428;10.816;2022-11-04T05:14:15;19.00;55.30
32753;DHT22;19121;52.428;10.816;2022-11-04T05:16:40;18.90;55.20
32753;DHT22;19121;52.428;10.816;2022-11-04T05:19:06;18.90;55.30
32753;DHT22;19121;52.428;10.816;2022-11-04T05:21:31;18.90;55.30
32753;DHT22;19121;52.428;10.816;2022-11-04T05:23:57;18.90;55.30
32753;DHT22;19121;52.428;10.816;2022-11-04T05:26:22;18.90;55.30
32753;DHT22;19121;52.428;10.816;2022-11-04T05:28:47;18.90;55.30
32753;DHT22;19121;52.428;10.816;2022-11-04T05:31:13;18.90;55.30
32753;DHT22;19121;52.428;10.816;2022-11-04T05:33:38;19.00;55.40
32753;DHT22;19121;52.428;10.816;2022-11-04T05:36:07;18.90;55.30
32753;DHT22;19121;52.428;10.816;2022-11-04T05:38:33;19.00;55.40
32753;DHT22;19121;52.428;10.816;2022-11-04T05:40:59;19.00;55.40
32753;DHT22;19121;52.428;10.816;2022-11-04T05:43:24;19.00;55.40
32753;DHT22;19121;52.428;10.816;2022-11-04T05:45:49;19.00;55.30
32753;DHT22;19121;52.428;10.816;2022-11-04T05:48:15;19.00;55.40
32753;DHT22;19121;52.428;10.816;2022-11-04T05:50:40;18.90;55.30
32753;DHT22;19121;52.428;10.816;2022-11-04T05:53:06;19.00;55.40
32753;DHT22;19121;52.428;10.816;2022-11-04T05:55:31;19.00;55.30
32753;DHT22;19121;52.428;10.816;2022-11-04T05:57:57;19.00;55.40
32753;DHT22;19121;52.428;10.816;2022-11-04T06:00:24;18.90;55.30
32753;DHT22;19121;52.428;10.816;2022-11-04T06:02:49;19.00;55.30
32753;DHT22;19121;52.428;10.816;2022-11-04T06:05:14;18.90;55.30
32753;DHT22;19121;52.428;10.816;2022-11-04T06:07:40;19.00;55.40
32753;DHT22;19121;52.428;10.816;2022-11-04T06:10:05;19.00;55.40
32753;DHT22;19121;52.428;10.816;2022-11-04T06:12:31;19.00;55.40
32753;DHT22;19121;52.428;10.816;2022-11-04T06:14:57;18.90;55.40
32753;DHT22;19121;52.428;10.816;2022-11-04T06:17:22;19.00;55.40
32753;DHT22;19121;52.428;10.816;2022-11-04T06:19:48;18.90;55.40
32753;DHT22;19121;52.428;10.816;2022-11-04T06:22:14;19.00;55.40
32753;DHT22;19121;52.428;10.816;2022-11-04T06:24:40;19.00;55.40
32753;DHT22;19121;52.428;10.816;2022-11-04T06:27:06;18.90;55.40
32753;DHT22;19121;52.428;10.816;2022-11-04T06:29:31;19.00;55.40
32753;DHT22;19121;52.428;10.816;2022-11-04T06:31:57;18.90;55.40
32753;DHT22;19121;52.428;10.816;2022-11-04T06:34:22;19.00;55.40
32753;DHT22;19121;52.428;10.816;2022-11-04T06:36:48;18.90;55.40
32753;DHT22;19121;52.428;10.816;2022-11-04T06:39:14;19.00;55.50
32753;DHT22;19121;52.428;10.816;2022-11-04T06:41:39;19.00;55.40
32753;DHT22;19121;52.428;10.816;2022-11-04T06:44:05;19.00;55.50
32753;DHT22;19121;52.428;10.816;2022-11-04T06:46:32;18.90;55.40
32753;DHT22;19121;52.428;10.816;2022-11-04T06:48:58;18.90;55.50
32753;DHT22;19121;52.428;10.816;2022-11-04T06:51:24;18.90;55.60
32753;DHT22;19121;52.428;10.816;2022-11-04T06:53:49;19.00;55.70
32753;DHT22;19121;52.428;10.816;2022-11-04T06:56:15;19.00;55.90
32753;DHT22;19121;52.428;10.816;2022-11-04T06:58:40;18.90;55.90
32753;DHT22;19121;52.428;10.816;2022-11-04T07:01:06;19.00;55.90
32753;DHT22;19121;52.428;10.816;2022-11-04T07:03:32;19.00;56.00
32753;DHT22;19121;52.428;10.816;2022-11-04T07:05:57;18.90;56.10
32753;DHT22;19121;52.428;10.816;2022-11-04T07:08:22;19.00;56.10
32753;DHT22;19121;52.428;10.816;2022-11-04T07:10:48;19.00;56.10
32753;DHT22;19121;52.428;10.816;2022-11-04T07:13:13;19.10;56.20
32753;DHT22;19121;52.428;10.816;2022-11-04T07:15:41;19.10;56.20
32753;DHT22;19121;52.428;10.816;2022-11-04T07:18:06;19.10;56.40
32753;DHT22;19121;52.428;10.816;2022-11-04T07:20:32;19.10;56.30
32753;DHT22;19121;52.428;10.816;2022-11-04T07:22:58;19.10;56.30
32753;DHT22;19121;52.428;10.816;2022-11-04T07:25:23;19.20;56.20
32753;DHT22;19121;52.428;10.816;2022-11-04T07:27:49;19.20;56.10
32753;DHT22;19121;52.428;10.816;2022-11-04T07:30:14;19.20;56.10
32753;DHT22;19121;52.428;10.816;2022-11-04T07:32:39;19.20;56.00
32753;DHT22;19121;52.428;10.816;2022-11-04T07:35:05;19.30;56.00
32753;DHT22;19121;52.428;10.816;2022-11-04T07:37:30;19.30;55.90
32753;DHT22;19121;52.428;10.816;2022-11-04T07:39:56;19.30;55.90
32753;DHT22;19121;52.428;10.816;2022-11-04T07:42:21;19.40;56.00
32753;DHT22;19121;52.428;10.816;2022-11-04T07:44:47;19.40;55.90
32753;DHT22;19121;52.428;10.816;2022-11-04T07:47:12;19.40;55.90
32753;DHT22;19121;52.428;10.816;2022-11-04T07:49:38;19.50;55.70
32753;DHT22;19121;52.428;10.816;2022-11-04T07:52:04;19.60;55.50
32753;DHT22;19121;52.428;10.816;2022-11-04T07:54:29;19.80;56.20
32753;DHT22;19121;52.428;10.816;2022-11-04T07:56:54;19.90;57.10
32753;DHT22;19121;52.428;10.816;2022-11-04T07:59:20;19.90;57.00
32753;DHT22;19121;52.428;10.816;2022-11-04T08:01:45;20.00;56.70
32753;DHT22;19121;52.428;10.816;2022-11-04T08:04:11;20.00;56.60
32753;DHT22;19121;52.428;10.816;2022-11-04T08:06:36;20.00;56.60
32753;DHT22;19121;52.428;10.816;2022-11-04T08:09:01;19.90;56.60
32753;DHT22;19121;52.428;10.816;2022-11-04T08:11:27;19.90;56.90
32753;DHT22;19121;52.428;10.816;2022-11-04T08:13:53;19.80;56.70
32753;DHT22;19121;52.428;10.816;2022-11-04T08:16:19;19.80;56.50
32753;DHT22;19121;52.428;10.816;2022-11-04T08:18:45;19.80;57.30
32753;DHT22;19121;52.428;10.816;2022-11-04T08:21:11;19.70;57.40
32753;DHT22;19121;52.428;10.816;2022-11-04T08:23:36;19.70;57.20
32753;DHT22;19121;52.428;10.816;2022-11-04T08:26:06;19.70;57.30
32753;DHT22;19121;52.428;10.816;2022-11-04T08:28:31;19.70;57.40
32753;DHT22;19121;52.428;10.816;2022-11-04T08:30:58;19.70;57.40
32753;DHT22;19121;52.428;10.816;2022-11-04T08:33:24;19.70;57.30
32753;DHT22;19121;52.428;10.816;2022-11-04T08:35:50;19.60;57.10
32753;DHT22;19121;52.428;10.816;2022-11-04T08:38:16;19.70;57.30
32753;DHT22;19121;52.428;10.816;2022-11-04T08:40:41;19.70;57.20
32753;DHT22;19121;52.428;10.816;2022-11-04T08:43:07;19.70;57.10
32753;DHT22;19121;52.428;10.816;2022-11-04T08:45:33;19.60;57.20
32753;DHT22;19121;52.428;10.816;2022-11-04T08:47:58;19.70;57.00
32753;DHT22;19121;52.428;10.816;2022-11-04T08:50:24;19.70;56.90
32753;DHT22;19121;52.428;10.816;2022-11-04T08:52:52;19.70;57.00
32753;DHT22;19121;52.428;10.816;2022-11-04T08:55:18;19.70;56.90
32753;DHT22;19121;52.428;10.816;2022-11-04T08:57:43;19.70;56.80
32753;DHT22;19121;52.428;10.816;2022-11-04T09:00:09;19.70;56.90
32753;DHT22;19121;52.428;10.816;2022-11-04T09:02:34;19.70;57.10
32753;DHT22;19121;52.428;10.816;2022-11-04T09:05:00;19.80;57.00
32753;DHT22;19121;52.428;10.816;2022-11-04T09:07:26;19.80;57.10
32753;DHT22;19121;52.428;10.816;2022-11-04T09:09:51;19.80;57.00
32753;DHT22;19121;52.428;10.816;2022-11-04T09:12:16;19.80;57.10
32753;DHT22;19121;52.428;10.816;2022-11-04T09:14:42;19.80;57.00
32753;DHT22;19121;52.428;10.816;2022-11-04T09:17:07;19.80;56.90
32753;DHT22;19121;52.428;10.816;2022-11-04T09:19:33;19.80;56.90
32753;DHT22;19121;52.428;10.816;2022-11-04T09:21:58;19.80;56.80
32753;DHT22;19121;52.428;10.816;2022-11-04T09:24:24;19.80;56.80
32753;DHT22;19121;52.428;10.816;2022-11-04T09:26:49;19.90;57.00
32753;DHT22;19121;52.428;10.816;2022-11-04T09:29:14;19.80;57.00
32753;DHT22;19121;52.428;10.816;2022-11-04T09:31:40;19.80;56.90
32753;DHT22;19121;52.428;10.816;2022-11-04T09:34:07;19.90;56.90
32753;DHT22;19121;52.428;10.816;2022-11-04T09:36:32;19.80;56.90
32753;DHT22;19121;52.428;10.816;2022-11-04T09:38:58;19.90;56.90
32753;DHT22;19121;52.428;10.816;2022-11-04T09:41:36;19.90;56.90
32753;DHT22;19121;52.428;10.816;2022-11-04T09:44:11;19.90;56.90
32753;DHT22;19121;52.428;10.816;2022-11-04T09:46:38;19.90;57.00
32753;DHT22;19121;52.428;10.816;2022-11-04T09:49:05;19.90;57.00
32753;DHT22;19121;52.428;10.816;2022-11-04T09:51:32;19.90;56.90
32753;DHT22;19121;52.428;10.816;2022-11-04T09:53:59;19.90;56.90
32753;DHT22;19121;52.428;10.816;2022-11-04T09:56:31;19.90;56.90
32753;DHT22;19121;52.428;10.816;2022-11-04T09:58:57;19.90;56.90
32753;DHT22;19121;52.428;10.816;2022-11-04T10:02:06;19.90;57.00
32753;DHT22;19121;52.428;10.816;2022-11-04T10:06:43;20.00;57.10
32753;DHT22;19121;52.428;10.816;2022-11-04T10:09:14;20.00;57.10
32753;DHT22;19121;52.428;10.816;2022-11-04T10:11:49;20.00;57.00
32753;DHT22;19121;52.428;10.816;2022-11-04T10:14:23;20.00;56.90
32753;DHT22;19121;52.428;10.816;2022-11-04T10:16:58;20.00;56.90
32753;DHT22;19121;52.428;10.816;2022-11-04T10:19:33;20.10;56.80
32753;DHT22;19121;52.428;10.816;2022-11-04T10:22:03;20.10;56.70
32753;DHT22;19121;52.428;10.816;2022-11-04T10:24:39;20.10;56.70
32753;DHT22;19121;52.428;10.816;2022-11-04T10:27:24;20.20;56.60
32753;DHT22;19121;52.428;10.816;2022-11-04T10:30:01;20.20;56.60
32753;DHT22;19121;52.428;10.816;2022-11-04T10:32:31;20.20;56.60
32753;DHT22;19121;52.428;10.816;2022-11-04T10:35:00;20.20;56.70
32753;DHT22;19121;52.428;10.816;2022-11-04T10:37:26;20.20;56.40
32753;DHT22;19121;52.428;10.816;2022-11-04T10:39:56;20.30;56.40
32753;DHT22;19121;52.428;10.816;2022-11-04T10:42:23;20.20;56.20
32753;DHT22;19121;52.428;10.816;2022-11-04T10:44:48;20.30;56.50
32753;DHT22;19121;52.428;10.816;2022-11-04T10:47:21;20.30;56.60
32753;DHT22;19121;52.428;10.816;2022-11-04T10:52:15;20.30;56.50
32753;DHT22;19121;52.428;10.816;2022-11-04T10:54:42;20.30;56.50
32753;DHT22;19121;52.428;10.816;2022-11-04T10:57:08;20.30;56.50
32753;DHT22;19121;52.428;10.816;2022-11-04T10:59:56;20.30;57.00
32753;DHT22;19121;52.428;10.816;2022-11-04T11:02:43;20.30;56.90
32753;DHT22;19121;52.428;10.816;2022-11-04T11:07:38;20.30;57.00
32753;DHT22;19121;52.428;10.816;2022-11-04T11:10:04;20.30;57.20
32753;DHT22;19121;52.428;10.816;2022-11-04T11:12:31;20.30;57.20
32753;DHT22;19121;52.428;10.816;2022-11-04T11:17:49;20.30;57.10
32753;DHT22;19121;52.428;10.816;2022-11-04T11:20:19;20.30;57.00
32753;DHT22;19121;52.428;10.816;2022-11-04T11:22:46;20.30;57.10
32753;DHT22;19121;52.428;10.816;2022-11-04T11:25:26;20.30;57.10
32753;DHT22;19121;52.428;10.816;2022-11-04T11:28:05;20.30;57.10
32753;DHT22;19121;52.428;10.816;2022-11-04T11:30:32;20.30;57.00
32753;DHT22;19121;52.428;10.816;2022-11-04T11:33:05;20.30;57.00
32753;DHT22;19121;52.428;10.816;2022-11-04T11:35:34;20.30;57.10
32753;DHT22;19121;52.428;10.816;2022-11-04T11:38:12;20.30;57.20
32753;DHT22;19121;52.428;10.816;2022-11-04T11:40:39;20.40;57.10
32753;DHT22;19121;52.428;10.816;2022-11-04T11:43:05;20.40;57.10
32753;DHT22;19121;52.428;10.816;2022-11-04T11:45:30;20.40;57.10
32753;DHT22;19121;52.428;10.816;2022-11-04T11:47:56;20.40;57.00
32753;DHT22;19121;52.428;10.816;2022-11-04T11:50:23;20.40;57.00
32753;DHT22;19121;52.428;10.816;2022-11-04T11:53:05;20.40;57.00
32753;DHT22;19121;52.428;10.816;2022-11-04T11:55:33;20.40;56.90
32753;DHT22;19121;52.428;10.816;2022-11-04T12:00:31;20.40;56.80
32753;DHT22;19121;52.428;10.816;2022-11-04T12:03:11;20.40;56.80
32753;DHT22;19121;52.428;10.816;2022-11-04T12:05:41;20.40;56.90
32753;DHT22;19121;52.428;10.816;2022-11-04T12:08:17;20.40;57.20
32753;DHT22;19121;52.428;10.816;2022-11-04T12:10:49;20.40;57.10
32753;DHT22;19121;52.428;10.816;2022-11-04T12:15:46;20.40;57.60
32753;DHT22;19121;52.428;10.816;2022-11-04T12:21:05;20.50;57.80
32753;DHT22;19121;52.428;10.816;2022-11-04T12:23:49;20.40;57.00
32753;DHT22;19121;52.428;10.816;2022-11-04T12:26:27;20.40;56.90
32753;DHT22;19121;52.428;10.816;2022-11-04T12:31:32;20.40;56.90
32753;DHT22;19121;52.428;10.816;2022-11-04T12:34:07;20.40;56.90
32753;DHT22;19121;52.428;10.816;2022-11-04T12:36:38;20.40;56.80
32753;DHT22;19121;52.428;10.816;2022-11-04T12:42:00;20.40;56.80
32753;DHT22;19121;52.428;10.816;2022-11-04T12:44:31;20.40;56.70
32753;DHT22;19121;52.428;10.816;2022-11-04T12:49:46;20.40;56.70
32753;DHT22;19121;52.428;10.816;2022-11-04T12:52:21;20.40;56.40
32753;DHT22;19121;52.428;10.816;2022-11-04T12:54:53;20.50;56.30
32753;DHT22;19121;52.428;10.816;2022-11-04T12:57:27;20.50;56.70
32753;DHT22;19121;52.428;10.816;2022-11-04T13:00:00;20.40;56.00
32753;DHT22;19121;52.428;10.816;2022-11-04T13:02:28;20.50;55.90
32753;DHT22;19121;52.428;10.816;2022-11-04T13:04:59;20.50;56.10
32753;DHT22;19121;52.428;10.816;2022-11-04T13:07:29;20.40;56.20
32753;DHT22;19121;52.428;10.816;2022-11-04T13:09:56;20.50;56.20
32753;DHT22;19121;52.428;10.816;2022-11-04T13:12:23;20.50;56.10
32753;DHT22;19121;52.428;10.816;2022-11-04T13:14:53;20.40;56.20
32753;DHT22;19121;52.428;10.816;2022-11-04T13:17:23;20.40;56.20
32753;DHT22;19121;52.428;10.816;2022-11-04T13:19:51;20.40;56.20
32753;DHT22;19121;52.428;10.816;2022-11-04T13:22:35;20.40;56.20
32753;DHT22;19121;52.428;10.816;2022-11-04T13:25:03;20.30;56.20
32753;DHT22;19121;52.428;10.816;2022-11-04T13:27:30;20.30;56.20
32753;DHT22;19121;52.428;10.816;2022-11-04T13:30:05;20.30;56.20
32753;DHT22;19121;52.428;10.816;2022-11-04T13:32:39;20.30;56.20
32753;DHT22;19121;52.428;10.816;2022-11-04T13:37:38;20.30;56.20
32753;DHT22;19121;52.428;10.816;2022-11-04T13:40:11;20.30;56.20
32753;DHT22;19121;52.428;10.816;2022-11-04T13:42:42;20.30;56.10
32753;DHT22;19121;52.428;10.816;2022-11-04T13:45:13;20.30;56.20
32753;DHT22;19121;52.428;10.816;2022-11-04T13:47:44;20.30;56.20
32753;DHT22;19121;52.428;10.816;2022-11-04T13:50:27;20.30;56.20
32753;DHT22;19121;52.428;10.816;2022-11-04T13:52:52;20.30;56.20
32753;DHT22;19121;52.428;10.816;2022-11-04T13:55:18;20.30;56.20
32753;DHT22;19121;52.428;10.816;2022-11-04T13:57:51;20.30;56.10
32753;DHT22;19121;52.428;10.816;2022-11-04T14:00:20;20.30;56.10
32753;DHT22;19121;52.428;10.816;2022-11-04T14:02:51;20.30;56.10
32753;DHT22;19121;52.428;10.816;2022-11-04T14:15:59;20.30;56.20
32753;DHT22;19121;52.428;10.816;2022-11-04T14:18:29;20.30;56.10
32753;DHT22;19121;52.428;10.816;2022-11-04T14:23:33;20.30;56.10
32753;DHT22;19121;52.428;10.816;2022-11-04T14:26:00;20.30;56.10
32753;DHT22;19121;52.428;10.816;2022-11-04T14:28:27;20.30;56.10
32753;DHT22;19121;52.428;10.816;2022-11-04T14:30:54;20.30;56.10
32753;DHT22;19121;52.428;10.816;2022-11-04T14:41:47;20.20;56.10
32753;DHT22;19121;52.428;10.816;2022-11-04T14:46:52;20.20;56.10
32753;DHT22;19121;52.428;10.816;2022-11-04T14:49:31;20.20;56.10
32753;DHT22;19121;52.428;10.816;2022-11-04T14:51:59;20.20;56.10
32753;DHT22;19121;52.428;10.816;2022-11-04T14:54:25;20.20;56.10
32753;DHT22;19121;52.428;10.816;2022-11-04T14:57:05;20.20;56.10
32753;DHT22;19121;52.428;10.816;2022-11-04T14:59:31;20.20;56.10
32753;DHT22;19121;52.428;10.816;2022-11-04T15:01:56;20.20;56.00
32753;DHT22;19121;52.428;10.816;2022-11-04T15:04:23;20.20;56.00
32753;DHT22;19121;52.428;10.816;2022-11-04T15:06:57;20.20;56.10
32753;DHT22;19121;52.428;10.816;2022-11-04T15:09:24;20.20;56.10
32753;DHT22;19121;52.428;10.816;2022-11-04T15:11:51;20.20;56.10
32753;DHT22;19121;52.428;10.816;2022-11-04T15:14:41;20.20;56.00
32753;DHT22;19121;52.428;10.816;2022-11-04T15:17:09;20.20;56.00
32753;DHT22;19121;52.428;10.816;2022-11-04T15:19:37;20.10;56.00
32753;DHT22;19121;52.428;10.816;2022-11-04T15:22:03;20.10;56.00
32753;DHT22;19121;52.428;10.816;2022-11-04T15:24:29;20.10;56.00
32753;DHT22;19121;52.428;10.816;2022-11-04T15:26:56;20.10;56.00
32753;DHT22;19121;52.428;10.816;2022-11-04T15:29:24;20.10;56.00
32753;DHT22;19121;52.428;10.816;2022-11-04T15:31:53;20.10;56.00
32753;DHT22;19121;52.428;10.816;2022-11-04T15:34:19;20.10;56.00
32753;DHT22;19121;52.428;10.816;2022-11-04T15:36:45;20.10;56.00
32753;DHT22;19121;52.428;10.816;2022-11-04T15:39:15;20.10;56.00
32753;DHT22;19121;52.428;10.816;2022-11-04T15:41:42;20.10;56.00
32753;DHT22;19121;52.428;10.816;2022-11-04T15:44:28;20.10;56.00
32753;DHT22;19121;52.428;10.816;2022-11-04T15:46:55;20.10;56.00
32753;DHT22;19121;52.428;10.816;2022-11-04T15:49:24;20.00;56.00
32753;DHT22;19121;52.428;10.816;2022-11-04T15:51:51;20.10;56.00
32753;DHT22;19121;52.428;10.816;2022-11-04T15:54:28;20.10;56.00
32753;DHT22;19121;52.428;10.816;2022-11-04T15:56:55;20.00;56.00
32753;DHT22;19121;52.428;10.816;2022-11-04T15:59:22;20.10;56.00
32753;DHT22;19121;52.428;10.816;2022-11-04T16:01:50;20.00;56.00
32753;DHT22;19121;52.428;10.816;2022-11-04T16:04:16;20.00;56.00
32753;DHT22;19121;52.428;10.816;2022-11-04T16:06:42;20.00;56.00
32753;DHT22;19121;52.428;10.816;2022-11-04T16:11:35;20.00;56.00
32753;DHT22;19121;52.428;10.816;2022-11-04T16:14:13;20.00;56.00
32753;DHT22;19121;52.428;10.816;2022-11-04T16:16:38;20.00;56.00
32753;DHT22;19121;52.428;10.816;2022-11-04T16:19:12;20.00;56.00
32753;DHT22;19121;52.428;10.816;2022-11-04T16:21:40;20.00;56.00
32753;DHT22;19121;52.428;10.816;2022-11-04T16:24:07;20.00;56.00
32753;DHT22;19121;52.428;10.816;2022-11-04T16:26:40;20.00;56.00
32753;DHT22;19121;52.428;10.816;2022-11-04T16:29:07;20.00;56.00
32753;DHT22;19121;52.428;10.816;2022-11-04T16:31:33;20.00;56.10
32753;DHT22;19121;52.428;10.816;2022-11-04T16:33:59;20.00;56.00
32753;DHT22;19121;52.428;10.816;2022-11-04T16:36:25;19.90;55.90
32753;DHT22;19121;52.428;10.816;2022-11-04T16:38:55;20.00;56.00